sensor_id;sensor_type;location;lat;lon;timestamp;pressure;altitude;pressure_sealevel;temperature;humidity
19736;BME280;32064;49.310;8.646;2023-02-20T00:01:30;101684.03;;;12.64;73.39
19736;BME280;32064;49.310;8.646;2023-02-20T00:03:56;101688.44;;;12.63;73.55
19736;BME280;32064;49.310;8.646;2023-02-20T00:06:22;101692.00;;;12.62;73.52
19736;BME280;32064;49.310;8.646;2023-02-20T00:08:47;101689.38;;;12.62;74.46
19736;BME280;32064;49.310;8.646;2023-02-20T00:11:12;101698.16;;;12.63;74.28
19736;BME280;32064;49.310;8.646;2023-02-20T00:13:44;101703.72;;;12.58;74.04
19736;BME280;32064;49.310;8.646;2023-02-20T00:16:09;101707.84;;;12.62;73.30
19736;BME280;32064;49.310;8.646;2023-02-20T00:18:35;101705.31;;;12.61;74.60
19736;BME280;32064;49.310;8.646;2023-02-20T00:21:00;101707.84;;;12.62;73.69
19736;BME280;32064;49.310;8.646;2023-02-20T00:23:26;101704.47;;;12.60;73.31
19736;BME280;32064;49.310;8.646;2023-02-20T00:25:51;101704.72;;;12.55;73.09
19736;BME280;32064;49.310;8.646;2023-02-20T00:28:16;101702.25;;;12.52;72.99
19736;BME280;32064;49.310;8.646;2023-02-20T00:30:42;101703.22;;;12.51;74.68
19736;BME280;32064;49.310;8.646;2023-02-20T00:33:07;101706.19;;;12.45;73.99
19736;BME280;32064;49.310;8.646;2023-02-20T00:35:32;101706.28;;;12.44;74.48
19736;BME280;32064;49.310;8.646;2023-02-20T00:37:58;101699.31;;;12.43;74.64
19736;BME280;32064;49.310;8.646;2023-02-20T00:40:24;101707.47;;;12.38;72.85
19736;BME280;32064;49.310;8.646;2023-02-20T00:42:50;101698.97;;;12.33;74.33
19736;BME280;32064;49.310;8.646;2023-02-20T00:45:16;101709.03;;;12.26;74.33
19736;BME280;32064;49.310;8.646;2023-02-20T00:47:42;101704.66;;;12.25;73.70
19736;BME280;32064;49.310;8.646;2023-02-20T00:50:08;101706.97;;;12.16;73.76
19736;BME280;32064;49.310;8.646;2023-02-20T00:52:34;101693.47;;;12.06;73.39
19736;BME280;32064;49.310;8.646;2023-02-20T00:55:01;101691.91;;;12.02;73.01
19736;BME280;32064;49.310;8.646;2023-02-20T00:57:26;101688.50;;;12.00;73.29
19736;BME280;32064;49.310;8.646;2023-02-20T00:59:52;101685.19;;;11.96;73.44
19736;BME280;32064;49.310;8.646;2023-02-20T01:02:17;101692.50;;;11.91;74.68
19736;BME280;32064;49.310;8.646;2023-02-20T01:04:43;101689.25;;;11.86;73.19
19736;BME280;32064;49.310;8.646;2023-02-20T01:07:08;101687.09;;;11.77;73.55
19736;BME280;32064;49.310;8.646;2023-02-20T01:09:34;101695.94;;;11.76;73.36
19736;BME280;32064;49.310;8.646;2023-02-20T01:11:59;101706.66;;;11.73;74.50
19736;BME280;32064;49.310;8.646;2023-02-20T01:14:24;101692.94;;;11.66;74.03
19736;BME280;32064;49.310;8.646;2023-02-20T01:16:52;101694.06;;;11.62;73.19
19736;BME280;32064;49.310;8.646;2023-02-20T01:19:21;101697.81;;;11.58;73.42
19736;BME280;32064;49.310;8.646;2023-02-20T01:21:47;101690.03;;;11.55;73.51
19736;BME280;32064;49.310;8.646;2023-02-20T01:24:13;101691.13;;;11.51;74.06
19736;BME280;32064;49.310;8.646;2023-02-20T01:26:42;101688.81;;;11.44;74.84
19736;BME280;32064;49.310;8.646;2023-02-20T01:29:08;101693.41;;;11.41;74.47
19736;BME280;32064;49.310;8.646;2023-02-20T01:31:33;101700.88;;;11.33;73.82
19736;BME280;32064;49.310;8.646;2023-02-20T01:33:59;101692.34;;;11.28;75.24
19736;BME280;32064;49.310;8.646;2023-02-20T01:36:24;101691.56;;;11.26;74.29
19736;BME280;32064;49.310;8.646;2023-02-20T01:38:52;101697.09;;;11.21;74.65
19736;BME280;32064;49.310;8.646;2023-02-20T01:41:18;101693.84;;;11.16;74.24
19736;BME280;32064;49.310;8.646;2023-02-20T01:43:44;101694.84;;;11.13;74.55
19736;BME280;32064;49.310;8.646;2023-02-20T01:49:02;101692.75;;;11.02;75.24
19736;BME280;32064;49.310;8.646;2023-02-20T01:51:36;101692.28;;;10.94;74.85
19736;BME280;32064;49.310;8.646;2023-02-20T01:54:06;101682.69;;;10.93;74.72
19736;BME280;32064;49.310;8.646;2023-02-20T01:56:33;101688.81;;;10.94;75.52
19736;BME280;32064;49.310;8.646;2023-02-20T01:58:58;101684.50;;;10.93;74.54
19736;BME280;32064;49.310;8.646;2023-02-20T02:01:24;101679.28;;;10.91;74.74
19736;BME280;32064;49.310;8.646;2023-02-20T02:03:53;101676.88;;;10.87;74.83
19736;BME280;32064;49.310;8.646;2023-02-20T02:06:22;101669.22;;;10.82;73.53
19736;BME280;32064;49.310;8.646;2023-02-20T02:08:50;101678.28;;;10.76;75.08
19736;BME280;32064;49.310;8.646;2023-02-20T02:11:19;101673.19;;;10.73;73.23
19736;BME280;32064;49.310;8.646;2023-02-20T02:13:46;101665.66;;;10.66;75.53
19736;BME280;32064;49.310;8.646;2023-02-20T02:16:36;101661.75;;;10.55;74.09
19736;BME280;32064;49.310;8.646;2023-02-20T02:22:14;101670.75;;;10.51;75.14
19736;BME280;32064;49.310;8.646;2023-02-20T02:28:10;101663.31;;;10.42;74.42
19736;BME280;32064;49.310;8.646;2023-02-20T02:36:44;101664.84;;;10.29;74.78
19736;BME280;32064;49.310;8.646;2023-02-20T02:39:18;101664.00;;;10.28;74.39
19736;BME280;32064;49.310;8.646;2023-02-20T02:42:05;101657.06;;;10.26;75.64
19736;BME280;32064;49.310;8.646;2023-02-20T02:44:46;101665.88;;;10.25;75.35
19736;BME280;32064;49.310;8.646;2023-02-20T02:47:24;101658.13;;;10.22;76.28
19736;BME280;32064;49.310;8.646;2023-02-20T02:49:58;101659.16;;;10.19;75.63
19736;BME280;32064;49.310;8.646;2023-02-20T02:52:27;101651.47;;;10.15;75.05
19736;BME280;32064;49.310;8.646;2023-02-20T02:55:04;101647.16;;;10.14;74.83
19736;BME280;32064;49.310;8.646;2023-02-20T02:57:30;101651.53;;;10.13;76.56
19736;BME280;32064;49.310;8.646;2023-02-20T03:03:09;101648.91;;;10.13;76.86
19736;BME280;32064;49.310;8.646;2023-02-20T03:05:42;101645.41;;;10.12;76.05
19736;BME280;32064;49.310;8.646;2023-02-20T03:08:22;101651.97;;;10.04;76.15
19736;BME280;32064;49.310;8.646;2023-02-20T03:11:01;101648.56;;;10.02;75.94
19736;BME280;32064;49.310;8.646;2023-02-20T03:13:31;101647.00;;;9.98;77.40
19736;BME280;32064;49.310;8.646;2023-02-20T03:16:21;101643.53;;;9.97;75.56
19736;BME280;32064;49.310;8.646;2023-02-20T03:18:49;101650.56;;;9.97;77.07
19736;BME280;32064;49.310;8.646;2023-02-20T03:21:20;101648.00;;;9.95;76.53
19736;BME280;32064;49.310;8.646;2023-02-20T03:23:52;101647.16;;;9.95;76.88
19736;BME280;32064;49.310;8.646;2023-02-20T03:26:24;101648.31;;;9.89;76.31
19736;BME280;32064;49.310;8.646;2023-02-20T03:29:03;101651.06;;;9.86;76.87
19736;BME280;32064;49.310;8.646;2023-02-20T03:31:34;101657.03;;;9.89;77.22
19736;BME280;32064;49.310;8.646;2023-02-20T03:34:06;101636.22;;;9.85;76.59
19736;BME280;32064;49.310;8.646;2023-02-20T03:39:45;101643.53;;;9.78;76.49
19736;BME280;32064;49.310;8.646;2023-02-20T03:42:33;101648.09;;;9.75;76.51
19736;BME280;32064;49.310;8.646;2023-02-20T03:45:21;101653.50;;;9.72;77.34
19736;BME280;32064;49.310;8.646;2023-02-20T03:47:52;101650.06;;;9.70;75.64
19736;BME280;32064;49.310;8.646;2023-02-20T03:50:19;101645.81;;;9.67;76.86
19736;BME280;32064;49.310;8.646;2023-02-20T03:52:45;101644.19;;;9.64;76.61
19736;BME280;32064;49.310;8.646;2023-02-20T03:55:10;101643.19;;;9.67;77.87
19736;BME280;32064;49.310;8.646;2023-02-20T03:57:39;101633.53;;;9.67;76.64
19736;BME280;32064;49.310;8.646;2023-02-20T04:00:10;101645.81;;;9.67;77.72
19736;BME280;32064;49.310;8.646;2023-02-20T04:02:40;101640.00;;;9.60;77.57
19736;BME280;32064;49.310;8.646;2023-02-20T04:05:09;101647.78;;;9.62;78.72
19736;BME280;32064;49.310;8.646;2023-02-20T04:10:06;101653.00;;;9.63;77.67
19736;BME280;32064;49.310;8.646;2023-02-20T04:12:38;101656.56;;;9.62;78.74
19736;BME280;32064;49.310;8.646;2023-02-20T04:15:06;101650.22;;;9.66;78.27
19736;BME280;32064;49.310;8.646;2023-02-20T04:17:41;101651.31;;;9.62;77.84
19736;BME280;32064;49.310;8.646;2023-02-20T04:20:10;101664.44;;;9.62;78.62
19736;BME280;32064;49.310;8.646;2023-02-20T04:22:40;101655.75;;;9.60;77.41
19736;BME280;32064;49.310;8.646;2023-02-20T04:25:32;101659.44;;;9.56;78.88
19736;BME280;32064;49.310;8.646;2023-02-20T04:28:02;101665.44;;;9.60;78.19
19736;BME280;32064;49.310;8.646;2023-02-20T04:30:28;101664.63;;;9.58;78.46
19736;BME280;32064;49.310;8.646;2023-02-20T04:32:54;101663.84;;;9.56;77.54
19736;BME280;32064;49.310;8.646;2023-02-20T04:35:20;101667.53;;;9.52;78.92
19736;BME280;32064;49.310;8.646;2023-02-20T04:37:45;101661.44;;;9.51;78.03
19736;BME280;32064;49.310;8.646;2023-02-20T04:40:13;101649.28;;;9.49;78.11
19736;BME280;32064;49.310;8.646;2023-02-20T04:42:39;101655.44;;;9.48;79.37
19736;BME280;32064;49.310;8.646;2023-02-20T04:45:04;101644.38;;;9.41;78.01
19736;BME280;32064;49.310;8.646;2023-02-20T04:47:30;101643.44;;;9.42;77.93
19736;BME280;32064;49.310;8.646;2023-02-20T04:49:57;101649.06;;;9.34;78.24
19736;BME280;32064;49.310;8.646;2023-02-20T04:52:22;101658.63;;;9.35;79.07
19736;BME280;32064;49.310;8.646;2023-02-20T04:54:49;101656.84;;;9.36;79.35
19736;BME280;32064;49.310;8.646;2023-02-20T04:57:15;101647.19;;;9.36;77.85
19736;BME280;32064;49.310;8.646;2023-02-20T04:59:41;101656.16;;;9.32;78.02
19736;BME280;32064;49.310;8.646;2023-02-20T05:02:06;101647.44;;;9.32;79.03
19736;BME280;32064;49.310;8.646;2023-02-20T05:04:32;101657.19;;;9.28;78.33
19736;BME280;32064;49.310;8.646;2023-02-20T05:06:58;101650.09;;;9.30;79.02
19736;BME280;32064;49.310;8.646;2023-02-20T05:09:24;101648.47;;;9.28;79.07
19736;BME280;32064;49.310;8.646;2023-02-20T05:11:49;101642.31;;;9.29;79.35
19736;BME280;32064;49.310;8.646;2023-02-20T05:14:15;101659.69;;;9.31;79.26
19736;BME280;32064;49.310;8.646;2023-02-20T05:16:41;101656.22;;;9.31;78.10
19736;BME280;32064;49.310;8.646;2023-02-20T05:19:07;101658.84;;;9.31;79.11
19736;BME280;32064;49.310;8.646;2023-02-20T05:21:33;101655.31;;;9.32;78.05
19736;BME280;32064;49.310;8.646;2023-02-20T05:24:18;101657.00;;;9.33;78.30
19736;BME280;32064;49.310;8.646;2023-02-20T05:26:44;101656.16;;;9.32;79.11
19736;BME280;32064;49.310;8.646;2023-02-20T05:29:09;101662.44;;;9.28;78.34
19736;BME280;32064;49.310;8.646;2023-02-20T05:31:38;101664.22;;;9.28;78.74
19736;BME280;32064;49.310;8.646;2023-02-20T05:34:03;101665.06;;;9.28;78.84
19736;BME280;32064;49.310;8.646;2023-02-20T05:36:29;101662.53;;;9.27;78.34
19736;BME280;32064;49.310;8.646;2023-02-20T05:38:54;101657.28;;;9.27;78.74
19736;BME280;32064;49.310;8.646;2023-02-20T05:41:19;101664.31;;;9.26;78.84
19736;BME280;32064;49.310;8.646;2023-02-20T05:43:45;101649.53;;;9.24;77.54
19736;BME280;32064;49.310;8.646;2023-02-20T05:46:13;101653.84;;;9.25;78.21
19736;BME280;32064;49.310;8.646;2023-02-20T05:48:38;101653.06;;;9.22;78.75
19736;BME280;32064;49.310;8.646;2023-02-20T05:51:04;101652.22;;;9.22;77.89
19736;BME280;32064;49.310;8.646;2023-02-20T05:53:30;101641.78;;;9.20;78.36
19736;BME280;32064;49.310;8.646;2023-02-20T05:55:56;101646.31;;;9.17;78.01
19736;BME280;32064;49.310;8.646;2023-02-20T05:58:22;101653.41;;;9.15;77.74
19736;BME280;32064;49.310;8.646;2023-02-20T06:00:47;101641.34;;;9.11;76.39
19736;BME280;32064;49.310;8.646;2023-02-20T06:03:14;101660.63;;;9.10;76.84
19736;BME280;32064;49.310;8.646;2023-02-20T06:05:39;101647.69;;;9.05;77.83
19736;BME280;32064;49.310;8.646;2023-02-20T06:08:05;101646.00;;;9.04;77.45
19736;BME280;32064;49.310;8.646;2023-02-20T06:10:31;101650.53;;;9.01;77.27
19736;BME280;32064;49.310;8.646;2023-02-20T06:12:56;101651.56;;;8.96;76.33
19736;BME280;32064;49.310;8.646;2023-02-20T06:15:22;101657.81;;;8.94;76.33
19736;BME280;32064;49.310;8.646;2023-02-20T06:17:47;101653.63;;;8.90;76.29
19736;BME280;32064;49.310;8.646;2023-02-20T06:20:12;101645.09;;;8.85;76.02
19736;BME280;32064;49.310;8.646;2023-02-20T06:22:38;101641.75;;;8.81;77.64
19736;BME280;32064;49.310;8.646;2023-02-20T06:25:04;101642.59;;;8.82;76.88
19736;BME280;32064;49.310;8.646;2023-02-20T06:27:30;101642.66;;;8.80;77.30
19736;BME280;32064;49.310;8.646;2023-02-20T06:29:56;101650.47;;;8.82;77.54
19736;BME280;32064;49.310;8.646;2023-02-20T06:32:21;101643.66;;;8.77;76.62
19736;BME280;32064;49.310;8.646;2023-02-20T06:34:46;101648.03;;;8.77;76.62
19736;BME280;32064;49.310;8.646;2023-02-20T06:37:12;101649.75;;;8.78;77.08
19736;BME280;32064;49.310;8.646;2023-02-20T06:39:37;101645.41;;;8.77;77.33
19736;BME280;32064;49.310;8.646;2023-02-20T06:42:04;101649.63;;;8.81;77.15
19736;BME280;32064;49.310;8.646;2023-02-20T06:44:30;101648.69;;;8.82;77.06
19736;BME280;32064;49.310;8.646;2023-02-20T06:46:57;101648.38;;;8.90;78.29
19736;BME280;32064;49.310;8.646;2023-02-20T06:49:23;101643.00;;;8.93;78.21
19736;BME280;32064;49.310;8.646;2023-02-20T06:51:52;101648.91;;;8.98;78.10
19736;BME280;32064;49.310;8.646;2023-02-20T06:54:17;101651.91;;;9.09;78.75
19736;BME280;32064;49.310;8.646;2023-02-20T06:56:46;101645.31;;;9.19;78.08
19736;BME280;32064;49.310;8.646;2023-02-20T06:59:12;101647.72;;;9.44;77.45
19736;BME280;32064;49.310;8.646;2023-02-20T07:01:41;101644.94;;;9.48;78.64
19736;BME280;32064;49.310;8.646;2023-02-20T07:04:15;101655.06;;;9.57;77.34
19736;BME280;32064;49.310;8.646;2023-02-20T07:06:40;101653.78;;;9.65;78.79
19736;BME280;32064;49.310;8.646;2023-02-20T07:09:06;101661.06;;;10.16;76.77
19736;BME280;32064;49.310;8.646;2023-02-20T07:11:32;101666.81;;;10.95;75.10
19736;BME280;32064;49.310;8.646;2023-02-20T07:13:57;101667.75;;;11.44;72.56
19736;BME280;32064;49.310;8.646;2023-02-20T07:16:23;101678.06;;;11.32;74.12
19736;BME280;32064;49.310;8.646;2023-02-20T07:18:48;101678.25;;;11.11;74.24
19736;BME280;32064;49.310;8.646;2023-02-20T07:21:14;101677.13;;;10.99;73.68
19736;BME280;32064;49.310;8.646;2023-02-20T07:23:40;101676.03;;;10.86;74.39
19736;BME280;32064;49.310;8.646;2023-02-20T07:26:05;101674.72;;;10.77;74.89
19736;BME280;32064;49.310;8.646;2023-02-20T07:28:33;101673.25;;;10.72;76.23
19736;BME280;32064;49.310;8.646;2023-02-20T07:30:59;101680.34;;;10.70;76.34
19736;BME280;32064;49.310;8.646;2023-02-20T07:33:24;101672.72;;;10.65;75.82
19736;BME280;32064;49.310;8.646;2023-02-20T07:35:50;101676.72;;;10.72;76.45
19736;BME280;32064;49.310;8.646;2023-02-20T07:38:15;101682.88;;;10.73;76.63
19736;BME280;32064;49.310;8.646;2023-02-20T07:40:40;101682.91;;;10.71;76.57
19736;BME280;32064;49.310;8.646;2023-02-20T07:43:06;101685.19;;;10.79;76.30
19736;BME280;32064;49.310;8.646;2023-02-20T07:45:31;101683.56;;;10.76;75.48
19736;BME280;32064;49.310;8.646;2023-02-20T07:47:57;101675.41;;;10.81;76.38
19736;BME280;32064;49.310;8.646;2023-02-20T07:50:22;101683.78;;;10.89;75.96
19736;BME280;32064;49.310;8.646;2023-02-20T07:52:48;101683.59;;;10.92;76.06
19736;BME280;32064;49.310;8.646;2023-02-20T07:55:15;101672.06;;;11.12;76.16
19736;BME280;32064;49.310;8.646;2023-02-20T07:57:41;101677.88;;;11.19;75.95
19736;BME280;32064;49.310;8.646;2023-02-20T08:00:07;101684.19;;;11.32;76.67
19736;BME280;32064;49.310;8.646;2023-02-20T08:02:32;101678.47;;;11.41;75.58
19736;BME280;32064;49.310;8.646;2023-02-20T08:04:58;101679.31;;;11.42;74.19
19736;BME280;32064;49.310;8.646;2023-02-20T08:07:23;101676.44;;;11.46;74.79
19736;BME280;32064;49.310;8.646;2023-02-20T08:09:48;101667.75;;;11.44;75.61
19736;BME280;32064;49.310;8.646;2023-02-20T08:12:14;101671.50;;;11.89;75.05
19736;BME280;32064;49.310;8.646;2023-02-20T08:14:39;101660.91;;;12.67;71.71
19736;BME280;32064;49.310;8.646;2023-02-20T08:17:05;101662.09;;;12.77;71.66
19736;BME280;32064;49.310;8.646;2023-02-20T08:19:30;101666.59;;;13.20;71.21
19736;BME280;32064;49.310;8.646;2023-02-20T08:21:56;101659.75;;;12.87;71.25
19736;BME280;32064;49.310;8.646;2023-02-20T08:24:21;101658.03;;;12.72;72.54
19736;BME280;32064;49.310;8.646;2023-02-20T08:26:47;101657.47;;;12.81;71.31
19736;BME280;32064;49.310;8.646;2023-02-20T08:29:14;101657.91;;;13.03;71.03
19736;BME280;32064;49.310;8.646;2023-02-20T08:31:40;101653.91;;;14.24;69.38
19736;BME280;32064;49.310;8.646;2023-02-20T08:34:06;101653.66;;;15.83;63.93
19736;BME280;32064;49.310;8.646;2023-02-20T08:36:31;101653.09;;;17.10;61.06
19736;BME280;32064;49.310;8.646;2023-02-20T08:38:57;101646.09;;;18.84;58.47
19736;BME280;32064;49.310;8.646;2023-02-20T08:41:24;101652.94;;;20.09;54.86
19736;BME280;32064;49.310;8.646;2023-02-20T08:43:50;101646.50;;;20.90;53.42
19736;BME280;32064;49.310;8.646;2023-02-20T08:46:16;101639.72;;;21.70;50.14
19736;BME280;32064;49.310;8.646;2023-02-20T08:48:42;101631.69;;;21.88;49.93
19736;BME280;32064;49.310;8.646;2023-02-20T08:51:08;101635.88;;;21.07;51.31
19736;BME280;32064;49.310;8.646;2023-02-20T08:53:35;101636.19;;;19.88;52.23
19736;BME280;32064;49.310;8.646;2023-02-20T08:56:02;101641.03;;;18.81;55.50
19736;BME280;32064;49.310;8.646;2023-02-20T08:58:29;101634.72;;;17.85;56.00
19736;BME280;32064;49.310;8.646;2023-02-20T09:00:54;101628.78;;;16.92;57.08
19736;BME280;32064;49.310;8.646;2023-02-20T09:03:20;101630.91;;;16.40;58.39
19736;BME280;32064;49.310;8.646;2023-02-20T09:05:45;101625.59;;;15.92;59.62
19736;BME280;32064;49.310;8.646;2023-02-20T09:08:11;101628.63;;;15.62;60.26
19736;BME280;32064;49.310;8.646;2023-02-20T09:10:36;101622.31;;;15.39;60.21
19736;BME280;32064;49.310;8.646;2023-02-20T09:13:02;101626.38;;;15.06;61.22
19736;BME280;32064;49.310;8.646;2023-02-20T09:15:27;101625.50;;;14.93;61.64
19736;BME280;32064;49.310;8.646;2023-02-20T09:17:53;101618.09;;;14.72;62.49
19736;BME280;32064;49.310;8.646;2023-02-20T09:20:20;101619.56;;;14.64;62.16
19736;BME280;32064;49.310;8.646;2023-02-20T09:22:47;101617.00;;;14.62;62.23
19736;BME280;32064;49.310;8.646;2023-02-20T09:25:13;101615.19;;;14.63;63.17
19736;BME280;32064;49.310;8.646;2023-02-20T09:27:39;101611.75;;;14.48;62.92
19736;BME280;32064;49.310;8.646;2023-02-20T09:30:05;101621.28;;;14.50;62.89
19736;BME280;32064;49.310;8.646;2023-02-20T09:32:31;101620.94;;;14.42;62.85
19736;BME280;32064;49.310;8.646;2023-02-20T09:34:56;101616.69;;;14.40;62.58
19736;BME280;32064;49.310;8.646;2023-02-20T09:37:23;101620.19;;;14.40;62.77
19736;BME280;32064;49.310;8.646;2023-02-20T09:39:49;101621.28;;;14.50;62.75
19736;BME280;32064;49.310;8.646;2023-02-20T09:42:28;101619.59;;;14.89;61.55
19736;BME280;32064;49.310;8.646;2023-02-20T09:45:14;101619.16;;;15.21;59.77
19736;BME280;32064;49.310;8.646;2023-02-20T09:55:59;101608.91;;;19.13;54.88
19736;BME280;32064;49.310;8.646;2023-02-20T10:01:07;101595.41;;;21.20;49.60
19736;BME280;32064;49.310;8.646;2023-02-20T10:03:43;101591.09;;;21.65;47.14
19736;BME280;32064;49.310;8.646;2023-02-20T10:06:19;101585.13;;;21.16;47.22
19736;BME280;32064;49.310;8.646;2023-02-20T10:08:49;101582.03;;;21.48;47.54
19736;BME280;32064;49.310;8.646;2023-02-20T10:11:25;101574.53;;;22.33;45.30
19736;BME280;32064;49.310;8.646;2023-02-20T10:13:56;101583.13;;;23.15;44.92
19736;BME280;32064;49.310;8.646;2023-02-20T10:27:41;101567.97;;;24.15;40.40
19736;BME280;32064;49.310;8.646;2023-02-20T10:30:19;101563.78;;;25.17;40.22
19736;BME280;32064;49.310;8.646;2023-02-20T10:32:55;101568.56;;;25.38;40.05
19736;BME280;32064;49.310;8.646;2023-02-20T10:35:29;101562.09;;;25.16;39.87
19736;BME280;32064;49.310;8.646;2023-02-20T10:38:01;101562.00;;;24.85;40.20
19736;BME280;32064;49.310;8.646;2023-02-20T10:40:38;101559.47;;;24.92;39.42
19736;BME280;32064;49.310;8.646;2023-02-20T10:43:27;101548.91;;;25.29;37.79
19736;BME280;32064;49.310;8.646;2023-02-20T10:46:04;101550.66;;;25.85;37.92
19736;BME280;32064;49.310;8.646;2023-02-20T10:48:33;101536.53;;;26.35;37.83
19736;BME280;32064;49.310;8.646;2023-02-20T10:56:15;101539.00;;;26.45;37.31
19736;BME280;32064;49.310;8.646;2023-02-20T11:01:28;101537.19;;;26.23;36.83
19736;BME280;32064;49.310;8.646;2023-02-20T11:04:16;101529.38;;;25.82;35.14
19736;BME280;32064;49.310;8.646;2023-02-20T11:06:45;101528.03;;;26.24;36.96
19736;BME280;32064;49.310;8.646;2023-02-20T11:09:14;101518.22;;;26.31;36.47
19736;BME280;32064;49.310;8.646;2023-02-20T11:11:42;101519.56;;;26.50;35.52
19736;BME280;32064;49.310;8.646;2023-02-20T11:14:20;101507.88;;;26.49;35.89
19736;BME280;32064;49.310;8.646;2023-02-20T11:17:08;101515.19;;;26.63;35.87
19736;BME280;32064;49.310;8.646;2023-02-20T11:19:43;101516.50;;;26.68;34.85
19736;BME280;32064;49.310;8.646;2023-02-20T11:22:09;101518.09;;;26.62;34.91
19736;BME280;32064;49.310;8.646;2023-02-20T11:24:36;101509.78;;;26.63;35.80
19736;BME280;32064;49.310;8.646;2023-02-20T11:27:08;101507.84;;;26.05;35.33
19736;BME280;32064;49.310;8.646;2023-02-20T11:30:21;101501.41;;;26.06;36.06
19736;BME280;32064;49.310;8.646;2023-02-20T11:32:41;101492.28;;;26.59;36.22
19736;BME280;32064;49.310;8.646;2023-02-20T11:37:43;101482.50;;;26.88;35.56
19736;BME280;32064;49.310;8.646;2023-02-20T11:40:15;101481.69;;;27.09;34.51
19736;BME280;32064;49.310;8.646;2023-02-20T11:42:42;101467.81;;;27.27;35.23
19736;BME280;32064;49.310;8.646;2023-02-20T11:45:13;101476.44;;;27.16;33.67
19736;BME280;32064;49.310;8.646;2023-02-20T11:47:39;101470.69;;;27.25;34.88
19736;BME280;32064;49.310;8.646;2023-02-20T11:50:16;101460.59;;;26.98;34.03
19736;BME280;32064;49.310;8.646;2023-02-20T11:53:00;101458.00;;;26.90;33.87
19736;BME280;32064;49.310;8.646;2023-02-20T11:55:28;101457.78;;;27.42;35.09
19736;BME280;32064;49.310;8.646;2023-02-20T11:57:54;101448.38;;;27.02;33.75
19736;BME280;32064;49.310;8.646;2023-02-20T12:00:23;101462.22;;;27.14;33.79
19736;BME280;32064;49.310;8.646;2023-02-20T12:02:52;101440.22;;;26.95;34.12
19736;BME280;32064;49.310;8.646;2023-02-20T12:05:20;101444.22;;;26.84;34.53
19736;BME280;32064;49.310;8.646;2023-02-20T12:13:01;101418.56;;;26.59;34.57
19736;BME280;32064;49.310;8.646;2023-02-20T12:15:27;101414.25;;;26.35;34.72
19736;BME280;32064;49.310;8.646;2023-02-20T12:20:33;101398.63;;;26.60;34.73
19736;BME280;32064;49.310;8.646;2023-02-20T12:23:17;101395.00;;;26.68;33.87
19736;BME280;32064;49.310;8.646;2023-02-20T12:26:02;101401.91;;;26.55;33.96
19736;BME280;32064;49.310;8.646;2023-02-20T12:29:00;101390.84;;;26.50;33.05
19736;BME280;32064;49.310;8.646;2023-02-20T12:31:56;101392.56;;;26.43;33.81
19736;BME280;32064;49.310;8.646;2023-02-20T12:37:05;101391.16;;;26.32;33.64
19736;BME280;32064;49.310;8.646;2023-02-20T12:39:57;101378.88;;;26.45;33.26
19736;BME280;32064;49.310;8.646;2023-02-20T12:57:14;101342.88;;;26.37;33.87
19736;BME280;32064;49.310;8.646;2023-02-20T13:02:28;101349.69;;;26.33;33.17
19736;BME280;32064;49.310;8.646;2023-02-20T13:04:59;101340.38;;;26.36;34.26
19736;BME280;32064;49.310;8.646;2023-02-20T13:07:41;101332.28;;;26.36;33.37
19736;BME280;32064;49.310;8.646;2023-02-20T13:10:24;101316.66;;;26.16;33.48
19736;BME280;32064;49.310;8.646;2023-02-20T13:12:51;101308.31;;;25.96;34.51
19736;BME280;32064;49.310;8.646;2023-02-20T13:15:24;101304.28;;;26.22;34.31
19736;BME280;32064;49.310;8.646;2023-02-20T13:20:51;101299.91;;;26.06;34.20
19736;BME280;32064;49.310;8.646;2023-02-20T13:28:26;101288.50;;;25.14;34.40
19736;BME280;32064;49.310;8.646;2023-02-20T13:33:41;101287.94;;;24.10;35.70
19736;BME280;32064;49.310;8.646;2023-02-20T14:00:28;101254.78;;;22.05;37.95
19736;BME280;32064;49.310;8.646;2023-02-20T14:02:58;101245.69;;;21.89;37.64
19736;BME280;32064;49.310;8.646;2023-02-20T14:05:29;101249.19;;;21.90;38.08
19736;BME280;32064;49.310;8.646;2023-02-20T14:07:56;101243.69;;;21.91;38.51
19736;BME280;32064;49.310;8.646;2023-02-20T14:13:18;101231.78;;;21.86;39.04
19736;BME280;32064;49.310;8.646;2023-02-20T14:15:49;101216.53;;;21.52;38.90
19736;BME280;32064;49.310;8.646;2023-02-20T14:18:23;101228.78;;;21.55;39.30
19736;BME280;32064;49.310;8.646;2023-02-20T14:21:14;101214.69;;;21.87;38.18
19736;BME280;32064;49.310;8.646;2023-02-20T14:23:40;101210.13;;;22.22;39.05
19736;BME280;32064;49.310;8.646;2023-02-20T14:26:25;101207.97;;;22.33;37.74
19736;BME280;32064;49.310;8.646;2023-02-20T14:28:55;101199.94;;;22.33;37.89
19736;BME280;32064;49.310;8.646;2023-02-20T14:31:35;101192.25;;;22.38;37.01
19736;BME280;32064;49.310;8.646;2023-02-20T14:34:06;101197.88;;;22.11;37.52
19736;BME280;32064;49.310;8.646;2023-02-20T14:36:43;101195.16;;;21.60;37.82
19736;BME280;32064;49.310;8.646;2023-02-20T14:39:21;101189.69;;;21.18;38.55
19736;BME280;32064;49.310;8.646;2023-02-20T14:41:54;101191.97;;;20.69;39.08
19736;BME280;32064;49.310;8.646;2023-02-20T14:44:20;101204.75;;;20.29;39.10
19736;BME280;32064;49.310;8.646;2023-02-20T14:46:46;101189.44;;;20.04;39.78
19736;BME280;32064;49.310;8.646;2023-02-20T14:49:23;101181.84;;;19.81;40.30
19736;BME280;32064;49.310;8.646;2023-02-20T14:51:49;101186.25;;;19.63;40.59
19736;BME280;32064;49.310;8.646;2023-02-20T14:54:23;101183.53;;;19.45;40.53
19736;BME280;32064;49.310;8.646;2023-02-20T14:56:50;101167.13;;;19.30;40.88
19736;BME280;32064;49.310;8.646;2023-02-20T14:59:30;101172.78;;;19.17;41.89
19736;BME280;32064;49.310;8.646;2023-02-20T15:02:24;101173.25;;;18.93;42.18
19736;BME280;32064;49.310;8.646;2023-02-20T15:05:14;101169.91;;;18.81;42.22
19736;BME280;32064;49.310;8.646;2023-02-20T15:07:43;101171.31;;;18.76;42.05